createdAt,value
2023-05-19T04:13:59.720Z,101226.87
2023-05-19T04:26:31.224Z,101239.81
2023-05-19T04:29:36.554Z,101231.03
2023-05-19T04:32:41.671Z,101228.34
2023-05-19T04:35:45.289Z,101234.25
2023-05-19T04:38:49.566Z,101236.00
2023-05-19T04:42:01.477Z,101238.97
2023-05-19T04:45:15.469Z,101243.03
2023-05-19T04:48:26.165Z,101249.03
2023-05-19T04:51:31.595Z,101240.34
2023-05-19T04:54:39.430Z,101239.22
2023-05-19T04:57:42.913Z,101248.28
2023-05-19T05:00:46.501Z,101255.97
2023-05-19T05:03:59.627Z,101252.34
2023-05-19T05:07:03.190Z,101251.81
2023-05-19T05:10:08.551Z,101250.25
2023-05-19T05:13:15.625Z,101252.03
2023-05-19T05:16:30.617Z,101256.53
2023-05-19T05:19:35.080Z,101257.50
2023-05-19T05:22:42.792Z,101269.97
2023-05-19T05:25:47.357Z,101269.62
2023-05-19T05:28:51.945Z,101267.66
2023-05-19T05:31:59.562Z,101269.31
2023-05-19T05:35:02.774Z,101263.69
2023-05-19T05:38:13.845Z,101267.56
2023-05-19T05:41:18.053Z,101264.63
2023-05-19T05:44:23.005Z,101263.84
2023-05-19T05:47:32.163Z,101264.56
2023-05-19T05:50:43.909Z,101272.44
2023-05-19T05:53:55.312Z,101266.66
2023-05-19T05:57:02.860Z,101258.88
2023-05-19T06:00:22.441Z,101254.81
2023-05-19T06:06:38.970Z,101252.00
2023-05-19T06:09:46.621Z,101259.91
2023-05-19T06:12:51.041Z,101266.12
2023-05-19T06:15:59.249Z,101263.66
2023-05-19T06:19:05.595Z,101266.66
2023-05-19T06:22:09.777Z,101269.12
2023-05-19T06:25:12.878Z,101283.75
2023-05-19T06:28:16.606Z,101284.09
2023-05-19T06:31:20.974Z,101292.72
2023-05-19T06:34:26.994Z,101289.56
2023-05-19T06:37:30.852Z,101298.97
2023-05-19T06:40:34.007Z,101299.41
2023-05-19T06:43:40.610Z,101305.22
2023-05-19T06:46:50.415Z,101294.94
2023-05-19T06:49:57.105Z,101296.97
2023-05-19T06:53:06.151Z,101297.19
2023-05-19T06:56:09.855Z,101305.19
2023-05-19T06:59:13.646Z,101304.81
2023-05-19T07:02:17.288Z,101306.84
2023-05-19T07:05:21.209Z,101296.00
2023-05-19T07:08:28.624Z,101300.75
2023-05-19T07:11:33.946Z,101289.00
2023-05-19T07:14:39.535Z,101290.06
2023-05-19T07:17:49.966Z,101283.66
2023-05-19T07:20:53.844Z,101278.66
2023-05-19T07:23:56.660Z,101280.53
2023-05-19T07:27:05.527Z,101275.00
2023-05-19T07:30:09.028Z,101274.47
2023-05-19T07:33:14.845Z,101277.09
2023-05-19T07:36:18.435Z,101279.44
2023-05-19T07:39:22.008Z,101278.84
2023-05-19T07:42:26.810Z,101275.38
2023-05-19T07:45:29.612Z,101271.00
2023-05-19T07:48:32.857Z,101278.84
2023-05-19T07:51:42.711Z,101280.72
2023-05-19T07:54:46.175Z,101277.78
2023-05-19T07:57:52.265Z,101270.03
2023-05-19T08:00:58.715Z,101273.47
2023-05-19T08:04:02.585Z,101270.09
2023-05-19T08:07:05.634Z,101263.91
2023-05-19T08:10:09.409Z,101263.87
2023-05-19T08:13:16.143Z,101256.81
2023-05-19T08:16:19.324Z,101255.91
2023-05-19T08:19:24.871Z,101254.91
2023-05-19T08:22:30.739Z,101262.12
2023-05-19T08:25:33.244Z,101254.88
2023-05-19T08:28:37.204Z,101255.00
2023-05-19T08:31:48.625Z,101253.03
2023-05-19T08:34:52.098Z,101259.03
2023-05-19T08:38:01.630Z,101256.22
2023-05-19T08:41:05.914Z,101263.78
2023-05-19T08:44:10.543Z,101246.28
2023-05-19T08:47:15.298Z,101240.59
2023-05-19T08:50:24.962Z,101235.16
2023-05-19T08:53:36.929Z,101232.94
2023-05-19T08:56:46.873Z,101232.84
2023-05-19T08:59:52.866Z,101239.12
2023-05-19T09:03:06.075Z,101247.97
2023-05-19T09:06:22.494Z,101253.31
2023-05-19T09:09:32.032Z,101254.06
2023-05-19T09:12:38.051Z,101253.09
2023-05-19T09:15:41.616Z,101247.91
2023-05-19T09:18:59.648Z,101244.03
2023-05-19T09:22:03.941Z,101238.03
2023-05-19T09:25:20.447Z,101247.00
2023-05-19T09:28:31.637Z,101242.69
2023-05-19T09:31:40.910Z,101234.59
2023-05-19T09:34:47.619Z,101227.72
2023-05-19T09:37:51.507Z,101223.31
2023-05-19T09:41:01.862Z,101225.66
2023-05-19T09:44:07.570Z,101228.44
2023-05-19T09:47:11.147Z,101221.38
2023-05-19T09:50:21.515Z,101220.56
2023-05-19T09:53:25.868Z,101215.12
2023-05-19T09:56:34.451Z,101216.06
2023-05-19T09:59:40.373Z,101221.34
2023-05-19T10:02:47.666Z,101204.03
2023-05-19T10:05:53.204Z,101211.59
2023-05-19T10:08:58.580Z,101210.81
2023-05-19T10:12:03.224Z,101213.41
2023-05-19T10:15:11.575Z,101210.75
2023-05-19T10:18:18.830Z,101201.84
2023-05-19T10:21:23.606Z,101198.88
2023-05-19T10:24:28.061Z,101190.16
2023-05-19T10:27:32.817Z,101184.03
2023-05-19T10:30:41.836Z,101172.63
2023-05-19T10:34:02.440Z,101175.09
2023-05-19T10:37:33.844Z,101179.31
2023-05-19T10:41:11.929Z,101172.63
2023-05-19T10:44:44.190Z,101170.56
2023-05-19T10:47:49.676Z,101172.53
2023-05-19T10:50:55.061Z,101169.97
2023-05-19T10:54:00.573Z,101160.78
2023-05-19T10:57:08.614Z,101158.09
2023-05-19T11:00:32.232Z,101155.72
2023-05-19T11:03:59.616Z,101156.72
2023-05-19T11:07:07.741Z,101150.72
2023-05-19T11:10:23.439Z,101152.16
2023-05-19T11:16:33.380Z,101152.63
2023-05-19T11:19:56.163Z,101153.09
2023-05-19T11:23:08.739Z,101154.81
2023-05-19T11:26:15.617Z,101149.97
2023-05-19T11:29:21.903Z,101149.47
2023-05-19T11:32:34.684Z,101143.22
2023-05-19T11:35:40.330Z,101143.44
2023-05-19T11:38:45.498Z,101138.44
2023-05-19T11:41:51.681Z,101139.78
2023-05-19T11:45:00.147Z,101130.78
2023-05-19T11:48:07.132Z,101131.78
2023-05-19T11:51:10.485Z,101134.44
2023-05-19T11:54:22.559Z,101138.06
2023-05-19T11:57:26.741Z,101131.28
2023-05-19T12:00:40.196Z,101134.91
2023-05-19T12:03:51.784Z,101114.59
2023-05-19T12:06:56.803Z,101124.63
2023-05-19T12:10:00.199Z,101117.41
2023-05-19T12:13:13.551Z,101112.69
2023-05-19T12:16:21.869Z,101108.25
2023-05-19T12:19:27.696Z,101109.88
2023-05-19T12:22:32.827Z,101097.03
2023-05-19T12:25:42.509Z,101101.37
2023-05-19T12:28:55.593Z,101103.28
2023-05-19T12:31:59.450Z,101099.06
2023-05-19T12:35:07.653Z,101093.69
2023-05-19T12:38:24.885Z,101094.16
2023-05-19T12:41:35.025Z,101089.00
2023-05-19T12:44:48.570Z,101087.59
2023-05-19T12:48:06.708Z,101087.13
2023-05-19T12:51:12.673Z,101072.28
2023-05-19T12:54:22.675Z,101063.31
2023-05-19T12:57:35.602Z,101060.44
2023-05-19T13:00:49.875Z,101062.66
2023-05-19T13:03:57.678Z,101068.69
2023-05-19T13:07:08.519Z,101052.06
2023-05-19T13:10:13.826Z,101067.06
2023-05-19T13:13:17.243Z,101060.91
2023-05-19T13:16:21.109Z,101058.91
2023-05-19T13:19:26.622Z,101054.88
2023-05-19T13:22:39.873Z,101048.88
2023-05-19T13:25:44.038Z,101049.12
2023-05-19T13:28:47.947Z,101045.81
2023-05-19T13:31:51.872Z,101050.00
2023-05-19T13:34:55.660Z,101042.16
2023-05-19T13:38:01.322Z,101036.56
2023-05-19T13:41:05.357Z,101026.28
2023-05-19T13:44:08.918Z,101023.53
2023-05-19T13:47:12.708Z,101019.34
2023-05-19T13:50:16.246Z,101022.91
2023-05-19T13:53:21.145Z,101016.28
2023-05-19T13:56:32.678Z,101014.59
2023-05-19T13:59:52.829Z,101012.63
2023-05-19T14:03:19.760Z,101008.19
2023-05-19T14:06:29.319Z,101005.03
2023-05-19T14:09:32.051Z,101005.09
2023-05-19T14:12:52.801Z,101007.22
2023-05-19T14:16:02.707Z,101006.97
2023-05-19T14:19:07.404Z,101007.94
2023-05-19T14:22:21.602Z,101004.06
2023-05-19T14:25:31.615Z,101006.63
2023-05-19T14:28:35.813Z,101000.53
2023-05-19T14:31:45.894Z,100999.06
2023-05-19T14:34:52.949Z,101002.22
2023-05-19T14:38:01.666Z,101001.38
2023-05-19T14:41:11.125Z,100998.91
2023-05-19T14:44:20.895Z,101000.78
2023-05-19T14:47:26.270Z,100994.34
2023-05-19T14:50:34.846Z,101002.00
2023-05-19T14:53:39.100Z,101001.16
2023-05-19T14:56:44.588Z,100995.88
2023-05-19T14:59:56.629Z,100995.97
2023-05-19T15:03:01.521Z,100996.16
2023-05-19T15:06:10.829Z,100991.62
2023-05-19T15:09:15.683Z,100990.66
2023-05-19T15:12:25.366Z,100993.13
2023-05-19T15:15:33.029Z,100983.91
2023-05-19T15:18:42.220Z,100982.81
2023-05-19T15:21:50.784Z,100996.84
2023-05-19T15:24:54.008Z,100992.72
2023-05-19T15:28:00.671Z,100988.28
2023-05-19T15:31:04.334Z,100989.53
2023-05-19T15:34:09.026Z,100995.91
2023-05-19T15:37:19.155Z,100989.84
2023-05-19T15:40:29.849Z,100987.41
2023-05-19T15:43:34.378Z,100997.19
2023-05-19T15:46:38.338Z,100993.84
2023-05-19T15:49:50.156Z,100991.28
2023-05-19T15:53:02.760Z,100992.91
2023-05-19T15:56:13.681Z,100993.75
2023-05-19T15:59:23.937Z,100985.91
2023-05-19T16:02:36.729Z,100990.41
2023-05-19T16:05:40.123Z,100988.72
2023-05-19T16:08:43.703Z,100982.63
2023-05-19T16:11:54.570Z,100995.16
2023-05-19T16:14:58.677Z,100991.69
2023-05-19T16:18:05.697Z,100993.47
2023-05-19T16:21:10.602Z,100995.28
2023-05-19T16:24:21.911Z,100998.84
2023-05-19T16:27:25.105Z,101002.44
2023-05-19T16:30:28.418Z,101001.50
2023-05-19T16:33:33.270Z,100993.59
2023-05-19T16:36:37.407Z,100991.84
2023-05-19T16:39:41.631Z,100990.13
2023-05-19T16:42:48.050Z,100989.31
2023-05-19T16:46:04.244Z,100990.22
2023-05-19T16:49:12.001Z,100992.06
2023-05-19T16:52:18.626Z,100985.00
2023-05-19T16:55:22.957Z,100985.94
2023-05-19T16:58:26.818Z,100984.16
2023-05-19T17:01:39.221Z,100990.41
2023-05-19T17:04:45.651Z,100983.31
2023-05-19T17:07:56.180Z,100990.44
2023-05-19T17:11:03.725Z,100994.00
2023-05-19T17:14:10.623Z,100988.69
2023-05-19T17:17:25.983Z,100992.25
2023-05-19T17:20:36.073Z,100994.00
2023-05-19T17:23:42.978Z,100992.25
2023-05-19T17:26:51.617Z,100993.13
2023-05-19T17:30:01.137Z,100989.59
2023-05-19T17:33:12.708Z,100990.47
2023-05-19T17:36:27.668Z,101002.81
2023-05-19T17:39:33.610Z,101007.19
2023-05-19T17:42:44.104Z,101004.50
2023-05-19T17:45:52.610Z,101005.38
2023-05-19T17:48:56.123Z,101005.34
2023-05-19T17:52:07.632Z,101004.41
2023-05-19T17:55:12.785Z,100999.87
2023-05-19T17:58:18.260Z,101005.97
2023-05-19T18:01:30.605Z,101005.91
2023-05-19T18:04:39.587Z,101002.28
2023-05-19T18:07:45.632Z,101002.22
2023-05-19T18:10:58.664Z,101006.47
2023-05-19T18:14:02.442Z,100998.44
2023-05-19T18:17:13.919Z,101002.72
2023-05-19T18:20:18.810Z,100999.94
2023-05-19T18:23:26.797Z,101001.62
2023-05-19T18:26:39.567Z,100990.06
2023-05-19T18:29:50.385Z,100995.19
2023-05-19T18:33:05.696Z,100997.72
2023-05-19T18:36:10.155Z,101004.62
2023-05-19T18:39:16.897Z,101009.78
2023-05-19T18:42:28.678Z,101014.06
2023-05-19T18:45:37.985Z,101010.37
2023-05-19T18:48:53.900Z,101016.44
2023-05-19T18:52:08.552Z,101020.78
2023-05-19T18:55:20.859Z,101029.50
2023-05-19T18:58:38.724Z,101031.22
2023-05-19T19:01:46.729Z,101039.94
2023-05-19T19:04:51.904Z,101032.91
2023-05-19T19:08:03.525Z,101026.72
2023-05-19T19:11:13.784Z,101031.97
2023-05-19T19:14:22.699Z,101035.44
2023-05-19T19:17:32.860Z,101037.19
2023-05-19T19:20:43.750Z,101038.06
2023-05-19T19:23:51.919Z,101038.91
2023-05-19T19:27:02.684Z,101041.56
2023-05-19T19:30:09.682Z,101047.72
2023-05-19T19:33:12.965Z,101050.34
2023-05-19T19:36:25.802Z,101052.97
2023-05-19T19:39:36.126Z,101045.97
2023-05-19T19:42:41.115Z,101053.94
2023-05-19T19:45:45.241Z,101053.06
2023-05-19T19:48:48.696Z,101048.66
2023-05-19T19:51:59.756Z,101049.56
2023-05-19T19:55:06.712Z,101044.31
2023-05-19T19:58:10.735Z,101048.69
2023-05-19T20:01:16.087Z,101060.06
2023-05-19T20:04:20.861Z,101054.78
2023-05-19T20:07:33.535Z,101056.50
2023-05-19T20:10:38.205Z,101062.69
2023-05-19T20:13:49.093Z,101058.34
2023-05-19T20:16:54.834Z,101052.19
2023-05-19T20:20:09.808Z,101050.47
2023-05-19T20:23:19.146Z,101053.13
2023-05-19T20:26:23.001Z,101054.88
2023-05-19T20:29:27.690Z,101055.75
2023-05-19T20:32:30.413Z,101052.16
2023-05-19T20:35:35.152Z,101056.59
2023-05-19T20:38:42.701Z,101055.72
2023-05-19T20:41:45.564Z,101062.75
2023-05-19T20:44:48.505Z,101059.19
2023-05-19T20:47:52.842Z,101062.69
2023-05-19T20:50:58.291Z,101059.19
2023-05-19T20:54:01.750Z,101053.00
2023-05-19T20:57:09.546Z,101053.00
2023-05-19T21:00:15.952Z,101049.50
2023-05-19T21:03:19.337Z,101053.09
2023-05-19T21:06:23.435Z,101040.72
2023-05-19T21:09:26.193Z,101038.06
2023-05-19T21:12:35.829Z,101038.88
2023-05-19T21:15:38.680Z,101032.66
2023-05-19T21:18:46.176Z,101044.00
2023-05-19T21:21:50.298Z,101043.91
2023-05-19T21:24:55.465Z,101046.44
2023-05-19T21:28:00.693Z,101047.22
2023-05-19T21:31:06.625Z,101048.06
2023-05-19T21:34:11.244Z,101051.50
2023-05-19T21:37:14.394Z,101051.41
2023-05-19T21:40:20.878Z,101051.22
2023-05-19T21:43:33.631Z,101044.97
2023-05-19T21:46:36.517Z,101051.94
2023-05-19T21:49:40.243Z,101048.31
2023-05-19T21:52:43.128Z,101040.31
2023-05-19T21:55:46.888Z,101033.28
2023-05-19T21:58:49.498Z,101034.09
2023-05-19T22:01:52.853Z,101027.78
2023-05-19T22:04:56.234Z,101029.50
2023-05-19T22:07:59.125Z,101032.97
2023-05-19T22:11:02.618Z,101025.88
2023-05-19T22:14:05.492Z,101022.31
2023-05-19T22:17:09.566Z,101019.72
2023-05-19T22:20:13.758Z,101018.75
2023-05-19T22:23:16.945Z,101012.47
2023-05-19T22:26:22.272Z,101016.78
2023-05-19T22:29:25.411Z,101011.41
2023-05-19T22:32:29.020Z,101012.16
2023-05-19T22:35:33.178Z,101007.75
2023-05-19T22:38:36.439Z,101005.06
2023-05-19T22:41:39.650Z,101005.94
2023-05-19T22:44:43.257Z,101008.47
2023-05-19T22:47:48.158Z,101021.59
2023-05-19T22:50:50.696Z,101010.19
2023-05-19T22:53:53.820Z,101010.16
2023-05-19T22:56:56.831Z,101010.06
2023-05-19T23:00:00.147Z,101004.78
2023-05-19T23:03:09.989Z,101007.31
2023-05-19T23:06:13.872Z,100996.66
2023-05-19T23:09:17.948Z,100991.22
2023-05-19T23:12:21.042Z,100986.75
2023-05-19T23:15:24.162Z,100983.22
2023-05-19T23:18:30.193Z,100986.69
2023-05-19T23:21:33.066Z,100984.03
2023-05-19T23:24:36.007Z,100989.19
2023-05-19T23:27:39.311Z,100979.47
2023-05-19T23:30:42.242Z,100979.44
2023-05-19T23:33:45.619Z,100976.75
2023-05-19T23:36:48.836Z,100973.16
2023-05-19T23:39:52.608Z,100977.38
2023-05-19T23:42:55.901Z,100973.66
2023-05-19T23:45:59.019Z,100973.63
2023-05-19T23:49:01.870Z,100973.59
2023-05-19T23:52:06.657Z,100966.47
2023-05-19T23:55:10.720Z,100960.25
2023-05-19T23:58:13.472Z,100960.28
